sensor_id;sensor_type;location;lat;lon;timestamp;pressure;altitude;pressure_sealevel;temperature;humidity
42511;BME280;28141;51.120;17.114;2023-01-27T00:00:32;101950.77;;;24.31;25.94
42511;BME280;28141;51.120;17.114;2023-01-27T00:03:36;101948.21;;;24.30;26.02
42511;BME280;28141;51.120;17.114;2023-01-27T00:06:39;101945.24;;;24.31;26.04
42511;BME280;28141;51.120;17.114;2023-01-27T00:09:42;101947.76;;;24.26;26.16
42511;BME280;28141;51.120;17.114;2023-01-27T00:12:47;101945.24;;;24.31;26.25
42511;BME280;28141;51.120;17.114;2023-01-27T00:16:03;101943.89;;;24.21;26.35
42511;BME280;28141;51.120;17.114;2023-01-27T00:19:06;101940.31;;;24.27;26.32
42511;BME280;28141;51.120;17.114;2023-01-27T00:22:10;101940.55;;;24.32;26.27
42511;BME280;28141;51.120;17.114;2023-01-27T00:25:51;101945.19;;;24.25;26.36
42511;BME280;28141;51.120;17.114;2023-01-27T00:29:02;101939.05;;;24.29;26.16
42511;BME280;28141;51.120;17.114;2023-01-27T00:32:05;101939.49;;;24.33;26.32
42511;BME280;28141;51.120;17.114;2023-01-27T00:35:20;101953.05;;;24.21;26.40
42511;BME280;28141;51.120;17.114;2023-01-27T00:38:25;101958.38;;;24.23;26.53
42511;BME280;28141;51.120;17.114;2023-01-27T00:41:29;101959.69;;;24.27;26.49
42511;BME280;28141;51.120;17.114;2023-01-27T00:44:33;101965.88;;;24.29;26.43
42511;BME280;28141;51.120;17.114;2023-01-27T00:47:36;101957.17;;;24.32;26.33
42511;BME280;28141;51.120;17.114;2023-01-27T00:51:10;101961.40;;;24.28;26.37
42511;BME280;28141;51.120;17.114;2023-01-27T00:54:15;101954.20;;;24.33;26.08
42511;BME280;28141;51.120;17.114;2023-01-27T00:57:19;101960.14;;;24.37;26.27
42511;BME280;28141;51.120;17.114;2023-01-27T01:00:22;101965.50;;;24.45;26.27
42511;BME280;28141;51.120;17.114;2023-01-27T01:03:27;101964.02;;;24.43;26.01
42511;BME280;28141;51.120;17.114;2023-01-27T01:06:34;101966.99;;;24.41;26.38
42511;BME280;28141;51.120;17.114;2023-01-27T01:09:38;101965.08;;;24.42;26.33
42511;BME280;28141;51.120;17.114;2023-01-27T01:12:42;101965.70;;;24.37;26.37
42511;BME280;28141;51.120;17.114;2023-01-27T01:15:45;101966.75;;;24.36;26.27
42511;BME280;28141;51.120;17.114;2023-01-27T01:18:49;101959.28;;;24.30;26.22
42511;BME280;28141;51.120;17.114;2023-01-27T01:21:52;101956.73;;;24.35;26.30
42511;BME280;28141;51.120;17.114;2023-01-27T01:25:20;101957.38;;;24.30;26.39
42511;BME280;28141;51.120;17.114;2023-01-27T01:28:24;101959.69;;;24.27;26.44
42511;BME280;28141;51.120;17.114;2023-01-27T01:31:28;101952.69;;;24.31;26.49
42511;BME280;28141;51.120;17.114;2023-01-27T01:34:31;101953.95;;;24.28;26.52
42511;BME280;28141;51.120;17.114;2023-01-27T01:37:34;101959.73;;;24.33;26.64
42511;BME280;28141;51.120;17.114;2023-01-27T01:40:42;101952.03;;;24.29;26.41
42511;BME280;28141;51.120;17.114;2023-01-27T01:43:46;101948.21;;;24.30;26.16
42511;BME280;28141;51.120;17.114;2023-01-27T01:46:51;101954.60;;;24.30;26.59
42511;BME280;28141;51.120;17.114;2023-01-27T01:49:55;101952.90;;;24.36;26.51
42511;BME280;28141;51.120;17.114;2023-01-27T01:52:59;101954.20;;;24.33;26.49
42511;BME280;28141;51.120;17.114;2023-01-27T01:56:09;101954.20;;;24.33;26.54
42511;BME280;28141;51.120;17.114;2023-01-27T01:59:49;101963.32;;;24.34;26.45
42511;BME280;28141;51.120;17.114;2023-01-27T02:02:53;101957.58;;;24.29;26.42
42511;BME280;28141;51.120;17.114;2023-01-27T02:05:56;101954.15;;;24.27;26.65
42511;BME280;28141;51.120;17.114;2023-01-27T02:09:00;101958.23;;;24.31;26.35
42511;BME280;28141;51.120;17.114;2023-01-27T02:12:05;101957.79;;;24.34;26.65
42511;BME280;28141;51.120;17.114;2023-01-27T02:15:09;101960.99;;;24.31;26.25
42511;BME280;28141;51.120;17.114;2023-01-27T02:18:13;101960.99;;;24.31;26.51
42511;BME280;28141;51.120;17.114;2023-01-27T02:21:17;101960.56;;;24.34;26.49
42511;BME280;28141;51.120;17.114;2023-01-27T02:24:25;101966.53;;;24.31;26.60
42511;BME280;28141;51.120;17.114;2023-01-27T02:28:04;101972.28;;;24.29;26.52
42511;BME280;28141;51.120;17.114;2023-01-27T02:31:07;101968.24;;;24.32;26.46
42511;BME280;28141;51.120;17.114;2023-01-27T02:34:15;101961.86;;;24.38;26.24
42511;BME280;28141;51.120;17.114;2023-01-27T02:37:20;101966.94;;;24.28;26.58
42511;BME280;28141;51.120;17.114;2023-01-27T02:40:25;101958.88;;;24.33;26.53
42511;BME280;28141;51.120;17.114;2023-01-27T02:43:29;101957.58;;;24.29;26.39
42511;BME280;28141;51.120;17.114;2023-01-27T02:46:33;101960.80;;;24.32;26.60
42511;BME280;28141;51.120;17.114;2023-01-27T02:49:36;101966.09;;;24.34;26.52
42511;BME280;28141;51.120;17.114;2023-01-27T02:52:40;101961.41;;;24.34;26.52
42511;BME280;28141;51.120;17.114;2023-01-27T02:56:09;101961.85;;;24.31;26.54
42511;BME280;28141;51.120;17.114;2023-01-27T02:59:13;101961.40;;;24.28;26.36
42511;BME280;28141;51.120;17.114;2023-01-27T03:02:16;101963.11;;;24.29;26.43
42511;BME280;28141;51.120;17.114;2023-01-27T03:05:29;101961.20;;;24.36;26.74
42511;BME280;28141;51.120;17.114;2023-01-27T03:08:33;101956.77;;;24.42;26.39
42511;BME280;28141;51.120;17.114;2023-01-27T03:11:36;101961.86;;;24.38;26.48
42511;BME280;28141;51.120;17.114;2023-01-27T03:15:18;101975.70;;;24.31;26.59
42511;BME280;28141;51.120;17.114;2023-01-27T03:18:34;101964.78;;;24.23;26.65
42511;BME280;28141;51.120;17.114;2023-01-27T03:21:38;101967.80;;;24.28;26.59
42511;BME280;28141;51.120;17.114;2023-01-27T03:24:41;101963.77;;;24.31;26.64
42511;BME280;28141;51.120;17.114;2023-01-27T03:27:44;101964.82;;;24.30;26.63
42511;BME280;28141;51.120;17.114;2023-01-27T03:30:48;101966.75;;;24.36;26.38
42511;BME280;28141;51.120;17.114;2023-01-27T03:33:51;101960.35;;;24.35;26.57
42511;BME280;28141;51.120;17.114;2023-01-27T03:36:55;101955.45;;;24.31;26.56
42511;BME280;28141;51.120;17.114;2023-01-27T03:40:37;101958.38;;;24.23;26.72
42511;BME280;28141;51.120;17.114;2023-01-27T03:43:53;101963.27;;;24.21;26.70
42511;BME280;28141;51.120;17.114;2023-01-27T03:47:08;101962.37;;;24.14;27.36
42511;BME280;28141;51.120;17.114;2023-01-27T03:50:13;101966.45;;;24.18;26.86
42511;BME280;28141;51.120;17.114;2023-01-27T03:53:22;101958.59;;;24.21;26.84
42511;BME280;28141;51.120;17.114;2023-01-27T03:56:25;101966.48;;;24.24;26.90
42511;BME280;28141;51.120;17.114;2023-01-27T03:59:54;101965.43;;;24.25;26.78
42511;BME280;28141;51.120;17.114;2023-01-27T04:02:59;101956.06;;;24.26;26.60
42511;BME280;28141;51.120;17.114;2023-01-27T04:06:17;101958.38;;;24.23;26.72
42511;BME280;28141;51.120;17.114;2023-01-27T04:09:35;101953.94;;;24.22;27.11
42511;BME280;28141;51.120;17.114;2023-01-27T04:12:38;101950.32;;;24.28;26.73
42511;BME280;28141;51.120;17.114;2023-01-27T04:15:42;101954.39;;;24.32;26.78
42511;BME280;28141;51.120;17.114;2023-01-27T04:18:45;101950.12;;;24.29;26.73
42511;BME280;28141;51.120;17.114;2023-01-27T04:22:17;101959.69;;;24.27;26.79
42511;BME280;28141;51.120;17.114;2023-01-27T04:25:21;101955.21;;;24.26;26.66
42511;BME280;28141;51.120;17.114;2023-01-27T04:28:24;101957.58;;;24.29;26.71
42511;BME280;28141;51.120;17.114;2023-01-27T04:31:27;101964.61;;;24.31;26.81
42511;BME280;28141;51.120;17.114;2023-01-27T04:34:31;101961.40;;;24.28;26.96
42511;BME280;28141;51.120;17.114;2023-01-27T04:37:34;101962.91;;;24.30;26.94
42511;BME280;28141;51.120;17.114;2023-01-27T04:40:38;101969.52;;;24.29;26.78
42511;BME280;28141;51.120;17.114;2023-01-27T04:43:41;101968.66;;;24.29;26.77
42511;BME280;28141;51.120;17.114;2023-01-27T04:46:45;101958.88;;;24.33;26.48
42511;BME280;28141;51.120;17.114;2023-01-27T04:49:48;101966.09;;;24.34;27.00
42511;BME280;28141;51.120;17.114;2023-01-27T04:52:52;101959.48;;;24.28;26.94
42511;BME280;28141;51.120;17.114;2023-01-27T04:56:27;101969.05;;;24.26;26.86
42511;BME280;28141;51.120;17.114;2023-01-27T04:59:31;101968.24;;;24.32;26.89
42511;BME280;28141;51.120;17.114;2023-01-27T05:02:34;101961.86;;;24.38;26.87
42511;BME280;28141;51.120;17.114;2023-01-27T05:05:38;101969.10;;;24.39;26.68
42511;BME280;28141;51.120;17.114;2023-01-27T05:08:41;101970.41;;;24.43;26.84
42511;BME280;28141;51.120;17.114;2023-01-27T05:11:45;101974.65;;;24.39;26.65
42511;BME280;28141;51.120;17.114;2023-01-27T05:14:48;101978.48;;;24.38;26.44
42511;BME280;28141;51.120;17.114;2023-01-27T05:17:52;101973.59;;;24.40;26.68
42511;BME280;28141;51.120;17.114;2023-01-27T05:20:58;101985.92;;;24.37;26.67
42511;BME280;28141;51.120;17.114;2023-01-27T05:24:03;101991.73;;;24.43;26.54
42511;BME280;28141;51.120;17.114;2023-01-27T05:27:07;101997.21;;;24.36;26.71
42511;BME280;28141;51.120;17.114;2023-01-27T05:30:11;102002.10;;;24.34;26.78
42511;BME280;28141;51.120;17.114;2023-01-27T05:33:14;101998.73;;;24.38;26.54
42511;BME280;28141;51.120;17.114;2023-01-27T05:36:20;102002.34;;;24.39;26.52
42511;BME280;28141;51.120;17.114;2023-01-27T05:39:24;101997.45;;;24.41;26.46
42511;BME280;28141;51.120;17.114;2023-01-27T05:42:56;102004.46;;;24.37;26.57
42511;BME280;28141;51.120;17.114;2023-01-27T05:46:10;102000.63;;;24.38;26.52
42511;BME280;28141;51.120;17.114;2023-01-27T05:49:14;102004.91;;;24.41;26.73
42511;BME280;28141;51.120;17.114;2023-01-27T05:52:18;102014.13;;;24.54;26.67
42511;BME280;28141;51.120;17.114;2023-01-27T05:55:21;102009.21;;;24.56;26.49
42511;BME280;28141;51.120;17.114;2023-01-27T05:58:25;102008.38;;;24.62;26.61
42511;BME280;28141;51.120;17.114;2023-01-27T06:01:31;102016.50;;;24.64;26.45
42511;BME280;28141;51.120;17.114;2023-01-27T06:04:34;102017.98;;;24.66;26.52
42511;BME280;28141;51.120;17.114;2023-01-27T06:07:38;102012.03;;;24.69;26.56
42511;BME280;28141;51.120;17.114;2023-01-27T06:10:41;102012.89;;;24.70;26.48
42511;BME280;28141;51.120;17.114;2023-01-27T06:14:12;102025.23;;;24.67;26.51
42511;BME280;28141;51.120;17.114;2023-01-27T06:17:15;102023.77;;;24.71;26.37
42511;BME280;28141;51.120;17.114;2023-01-27T06:20:19;102028.03;;;24.74;26.68
42511;BME280;28141;51.120;17.114;2023-01-27T06:23:22;102030.61;;;24.76;26.60
42511;BME280;28141;51.120;17.114;2023-01-27T06:26:26;102036.15;;;24.76;26.48
42511;BME280;28141;51.120;17.114;2023-01-27T06:29:29;102033.38;;;24.89;26.32
42511;BME280;28141;51.120;17.114;2023-01-27T06:32:35;102041.30;;;24.92;26.43
42511;BME280;28141;51.120;17.114;2023-01-27T06:35:39;102038.52;;;24.92;26.20
42511;BME280;28141;51.120;17.114;2023-01-27T06:39:10;102036.43;;;24.94;26.41
42511;BME280;28141;51.120;17.114;2023-01-27T06:42:14;102046.91;;;24.98;26.18
42511;BME280;28141;51.120;17.114;2023-01-27T06:45:18;102041.77;;;25.02;26.39
42511;BME280;28141;51.120;17.114;2023-01-27T06:48:22;102046.05;;;24.98;26.35
42511;BME280;28141;51.120;17.114;2023-01-27T06:51:31;102050.74;;;25.04;26.53
42511;BME280;28141;51.120;17.114;2023-01-27T06:54:35;102046.91;;;25.05;26.35
42511;BME280;28141;51.120;17.114;2023-01-27T06:57:38;102049.88;;;25.10;26.25
42511;BME280;28141;51.120;17.114;2023-01-27T07:00:43;102044.57;;;25.08;26.25
42511;BME280;28141;51.120;17.114;2023-01-27T07:03:46;102052.04;;;25.15;26.39
42511;BME280;28141;51.120;17.114;2023-01-27T07:06:50;102048.82;;;25.11;26.34
42511;BME280;28141;51.120;17.114;2023-01-27T07:09:53;102043.93;;;25.13;26.87
42511;BME280;28141;51.120;17.114;2023-01-27T07:13:06;102047.55;;;25.07;26.50
42511;BME280;28141;51.120;17.114;2023-01-27T07:16:34;102047.11;;;24.97;26.69
42511;BME280;28141;51.120;17.114;2023-01-27T07:19:38;102042.18;;;24.99;26.75
42511;BME280;28141;51.120;17.114;2023-01-27T07:22:41;102052.00;;;25.01;26.43
42511;BME280;28141;51.120;17.114;2023-01-27T07:25:48;102057.13;;;24.98;26.61
42511;BME280;28141;51.120;17.114;2023-01-27T07:28:51;102047.52;;;25.00;26.71
42511;BME280;28141;51.120;17.114;2023-01-27T07:31:55;102054.13;;;24.99;26.52
42511;BME280;28141;51.120;17.114;2023-01-27T07:34:58;102060.56;;;25.06;26.63
42511;BME280;28141;51.120;17.114;2023-01-27T07:38:02;102059.05;;;25.04;26.74
42511;BME280;28141;51.120;17.114;2023-01-27T07:41:32;102064.19;;;25.14;26.64
42511;BME280;28141;51.120;17.114;2023-01-27T07:44:35;102071.03;;;25.24;26.78
42511;BME280;28141;51.120;17.114;2023-01-27T07:47:39;102063.99;;;25.35;26.86
42511;BME280;28141;51.120;17.114;2023-01-27T07:50:42;102068.93;;;25.39;26.90
42511;BME280;28141;51.120;17.114;2023-01-27T07:53:46;102059.73;;;25.45;27.18
42511;BME280;28141;51.120;17.114;2023-01-27T07:56:49;102064.66;;;25.50;26.87
42511;BME280;28141;51.120;17.114;2023-01-27T07:59:53;102065.31;;;25.52;26.76
42511;BME280;28141;51.120;17.114;2023-01-27T08:02:59;102062.08;;;25.55;26.94
42511;BME280;28141;51.120;17.114;2023-01-27T08:06:08;102063.80;;;25.56;27.26
42511;BME280;28141;51.120;17.114;2023-01-27T08:09:37;102069.55;;;25.48;26.97
42511;BME280;28141;51.120;17.114;2023-01-27T08:12:40;102059.73;;;25.45;26.71
42511;BME280;28141;51.120;17.114;2023-01-27T08:15:45;102071.68;;;25.53;27.10
42511;BME280;28141;51.120;17.114;2023-01-27T08:18:48;102070.41;;;25.55;26.99
42511;BME280;28141;51.120;17.114;2023-01-27T08:21:52;102065.13;;;25.60;27.11
42511;BME280;28141;51.120;17.114;2023-01-27T08:24:56;102068.75;;;25.61;27.17
42511;BME280;28141;51.120;17.114;2023-01-27T08:27:59;102074.30;;;25.61;26.97
42511;BME280;28141;51.120;17.114;2023-01-27T08:31:12;102066.62;;;25.63;27.07
42511;BME280;28141;51.120;17.114;2023-01-27T08:34:40;102085.80;;;25.64;27.06
42511;BME280;28141;51.120;17.114;2023-01-27T08:37:45;102082.41;;;25.69;26.80
42511;BME280;28141;51.120;17.114;2023-01-27T08:40:49;102084.75;;;25.72;26.93
42511;BME280;28141;51.120;17.114;2023-01-27T08:43:54;102072.36;;;25.68;26.74
42511;BME280;28141;51.120;17.114;2023-01-27T08:46:57;102092.02;;;25.73;27.08
42511;BME280;28141;51.120;17.114;2023-01-27T08:50:01;102095.21;;;25.70;26.78
42511;BME280;28141;51.120;17.114;2023-01-27T08:53:05;102092.63;;;25.75;26.61
42511;BME280;28141;51.120;17.114;2023-01-27T08:56:13;102092.87;;;25.80;27.06
42511;BME280;28141;51.120;17.114;2023-01-27T08:59:41;102096.49;;;25.80;26.85
42511;BME280;28141;51.120;17.114;2023-01-27T09:02:48;102095.83;;;25.85;26.87
42511;BME280;28141;51.120;17.114;2023-01-27T09:05:55;102093.70;;;25.87;27.10
42511;BME280;28141;51.120;17.114;2023-01-27T09:08:59;102100.32;;;25.93;26.78
42511;BME280;28141;51.120;17.114;2023-01-27T09:12:11;102105.66;;;25.88;26.61
42511;BME280;28141;51.120;17.114;2023-01-27T09:15:15;102105.02;;;25.92;26.79
42511;BME280;28141;51.120;17.114;2023-01-27T09:18:19;102116.56;;;25.96;26.68
42511;BME280;28141;51.120;17.114;2023-01-27T09:21:47;102119.10;;;25.97;26.76
42511;BME280;28141;51.120;17.114;2023-01-27T09:24:50;102114.39;;;25.98;27.08
42511;BME280;28141;51.120;17.114;2023-01-27T09:27:55;102118.03;;;25.98;26.43
42511;BME280;28141;51.120;17.114;2023-01-27T09:30:59;102115.48;;;26.03;26.75
42511;BME280;28141;51.120;17.114;2023-01-27T09:34:02;102129.78;;;26.00;26.33
42511;BME280;28141;51.120;17.114;2023-01-27T09:37:09;102134.05;;;25.96;26.69
42511;BME280;28141;51.120;17.114;2023-01-27T09:44:01;102139.60;;;25.96;26.61
42511;BME280;28141;51.120;17.114;2023-01-27T10:10:56;102126.81;;;25.95;26.49
42511;BME280;28141;51.120;17.114;2023-01-27T10:27:44;102129.16;;;25.92;26.46
42511;BME280;28141;51.120;17.114;2023-01-27T10:34:34;102127.86;;;25.88;26.16
42511;BME280;28141;51.120;17.114;2023-01-27T10:51:19;102131.94;;;25.92;26.42
42511;BME280;28141;51.120;17.114;2023-01-27T11:01:19;102140.47;;;26.03;26.09
42511;BME280;28141;51.120;17.114;2023-01-27T11:07:53;102134.89;;;26.10;25.96
42511;BME280;28141;51.120;17.114;2023-01-27T11:11:01;102144.29;;;26.09;25.94
42511;BME280;28141;51.120;17.114;2023-01-27T11:14:48;102141.96;;;25.99;25.94
42511;BME280;28141;51.120;17.114;2023-01-27T11:17:59;102133.64;;;26.06;25.82
42511;BME280;28141;51.120;17.114;2023-01-27T11:21:11;102134.70;;;26.05;26.00
42511;BME280;28141;51.120;17.114;2023-01-27T11:34:37;102122.93;;;25.96;25.89
42511;BME280;28141;51.120;17.114;2023-01-27T11:37:52;102121.66;;;25.99;26.13
42511;BME280;28141;51.120;17.114;2023-01-27T11:40:52;102135.98;;;26.02;25.77
42511;BME280;28141;51.120;17.114;2023-01-27T11:44:28;102136.20;;;26.01;25.68
42511;BME280;28141;51.120;17.114;2023-01-27T11:47:37;102129.78;;;26.00;25.65
42511;BME280;28141;51.120;17.114;2023-01-27T11:50:43;102129.14;;;25.98;25.84
42511;BME280;28141;51.120;17.114;2023-01-27T11:57:03;102127.44;;;25.97;25.64
42511;BME280;28141;51.120;17.114;2023-01-27T12:00:32;102131.28;;;26.03;25.63
42511;BME280;28141;51.120;17.114;2023-01-27T12:07:09;102129.37;;;25.90;25.42
42511;BME280;28141;51.120;17.114;2023-01-27T12:10:29;102132.58;;;25.94;25.76
42511;BME280;28141;51.120;17.114;2023-01-27T12:13:33;102131.94;;;25.92;25.17
42511;BME280;28141;51.120;17.114;2023-01-27T12:17:06;102126.81;;;25.95;25.65
42511;BME280;28141;51.120;17.114;2023-01-27T12:23:33;102116.97;;;25.86;25.35
42511;BME280;28141;51.120;17.114;2023-01-27T12:26:38;102115.48;;;25.90;25.46
42511;BME280;28141;51.120;17.114;2023-01-27T12:29:48;102110.77;;;25.97;25.36
42511;BME280;28141;51.120;17.114;2023-01-27T12:33:24;102116.97;;;25.99;25.81
42511;BME280;28141;51.120;17.114;2023-01-27T12:43:13;102111.83;;;26.09;25.92
42511;BME280;28141;51.120;17.114;2023-01-27T12:53:19;102121.65;;;26.12;25.95
42511;BME280;28141;51.120;17.114;2023-01-27T12:56:23;102116.96;;;26.12;25.46
42511;BME280;28141;51.120;17.114;2023-01-27T12:59:27;102115.46;;;26.16;25.60
42511;BME280;28141;51.120;17.114;2023-01-27T13:03:05;102125.50;;;26.11;25.77
42511;BME280;28141;51.120;17.114;2023-01-27T13:06:15;102127.63;;;26.09;25.99
42511;BME280;28141;51.120;17.114;2023-01-27T13:16:28;102132.79;;;26.05;25.84
42511;BME280;28141;51.120;17.114;2023-01-27T13:19:41;102132.33;;;26.08;25.70
42511;BME280;28141;51.120;17.114;2023-01-27T13:22:52;102138.74;;;26.09;25.79
42511;BME280;28141;51.120;17.114;2023-01-27T13:29:39;102154.78;;;26.00;26.04
42511;BME280;28141;51.120;17.114;2023-01-27T13:32:47;102147.28;;;26.07;26.33
42511;BME280;28141;51.120;17.114;2023-01-27T13:42:35;102162.27;;;26.06;26.33
42511;BME280;28141;51.120;17.114;2023-01-27T13:49:38;102178.48;;;26.09;25.88
42511;BME280;28141;51.120;17.114;2023-01-27T13:52:39;102173.37;;;26.13;26.02
42511;BME280;28141;51.120;17.114;2023-01-27T14:13:26;102194.52;;;25.94;25.87
42511;BME280;28141;51.120;17.114;2023-01-27T14:26:42;102193.01;;;25.98;26.29
42511;BME280;28141;51.120;17.114;2023-01-27T14:36:52;102201.33;;;25.98;26.45
42511;BME280;28141;51.120;17.114;2023-01-27T14:40:11;102195.99;;;26.10;26.01
42511;BME280;28141;51.120;17.114;2023-01-27T14:53:39;102201.97;;;25.87;26.09
42511;BME280;28141;51.120;17.114;2023-01-27T15:07:06;102187.00;;;25.75;25.61
42511;BME280;28141;51.120;17.114;2023-01-27T15:10:41;102186.59;;;25.71;25.74
42511;BME280;28141;51.120;17.114;2023-01-27T15:24:11;102214.28;;;25.52;25.63
42511;BME280;28141;51.120;17.114;2023-01-27T15:27:16;102210.87;;;25.50;25.51
42511;BME280;28141;51.120;17.114;2023-01-27T15:30:26;102208.09;;;25.56;25.56
42511;BME280;28141;51.120;17.114;2023-01-27T15:40:26;102219.99;;;25.37;25.51
42511;BME280;28141;51.120;17.114;2023-01-27T15:43:31;102222.98;;;25.42;25.42
42511;BME280;28141;51.120;17.114;2023-01-27T15:46:36;102223.63;;;25.44;25.50
42511;BME280;28141;51.120;17.114;2023-01-27T15:49:48;102217.66;;;25.40;25.22
42511;BME280;28141;51.120;17.114;2023-01-27T15:56:06;102224.68;;;25.36;25.63
42511;BME280;28141;51.120;17.114;2023-01-27T15:59:47;102238.55;;;25.36;25.29
42511;BME280;28141;51.120;17.114;2023-01-27T16:02:53;102227.86;;;25.33;25.59
42511;BME280;28141;51.120;17.114;2023-01-27T16:06:03;102236.43;;;25.38;25.38
42511;BME280;28141;51.120;17.114;2023-01-27T16:09:24;102236.23;;;25.40;25.35
42511;BME280;28141;51.120;17.114;2023-01-27T16:19:30;102234.66;;;25.24;25.02
42511;BME280;28141;51.120;17.114;2023-01-27T16:22:38;102237.89;;;25.28;25.29
42511;BME280;28141;51.120;17.114;2023-01-27T16:33:33;102240.02;;;25.26;25.49
42511;BME280;28141;51.120;17.114;2023-01-27T16:36:04;102236.38;;;25.25;25.32
42511;BME280;28141;51.120;17.114;2023-01-27T16:39:43;102241.47;;;25.22;25.31
42511;BME280;28141;51.120;17.114;2023-01-27T16:46:03;102247.67;;;25.24;25.48
42511;BME280;28141;51.120;17.114;2023-01-27T16:49:22;102248.58;;;25.31;25.27
42511;BME280;28141;51.120;17.114;2023-01-27T16:52:46;102255.81;;;25.32;25.32
42511;BME280;28141;51.120;17.114;2023-01-27T16:55:59;102243.23;;;25.29;25.18
42511;BME280;28141;51.120;17.114;2023-01-27T16:59:08;102256.84;;;25.18;25.09
42511;BME280;28141;51.120;17.114;2023-01-27T17:02:19;102251.69;;;25.15;25.25
42511;BME280;28141;51.120;17.114;2023-01-27T17:05:25;102249.57;;;25.17;25.51
42511;BME280;28141;51.120;17.114;2023-01-27T17:08:29;102246.75;;;25.10;25.77
42511;BME280;28141;51.120;17.114;2023-01-27T17:12:04;102249.70;;;25.02;25.56
42511;BME280;28141;51.120;17.114;2023-01-27T17:15:17;102252.05;;;24.98;25.62
42511;BME280;28141;51.120;17.114;2023-01-27T17:18:24;102247.77;;;24.96;25.45
42511;BME280;28141;51.120;17.114;2023-01-27T17:21:35;102252.66;;;24.94;26.02
42511;BME280;28141;51.120;17.114;2023-01-27T17:24:47;102253.31;;;24.96;25.62
42511;BME280;28141;51.120;17.114;2023-01-27T17:28:20;102258.09;;;24.81;25.78
42511;BME280;28141;51.120;17.114;2023-01-27T17:31:29;102245.55;;;24.85;25.99
42511;BME280;28141;51.120;17.114;2023-01-27T17:34:38;102252.34;;;24.82;25.92
42511;BME280;28141;51.120;17.114;2023-01-27T17:37:43;102250.82;;;24.80;25.83
42511;BME280;28141;51.120;17.114;2023-01-27T17:40:49;102262.97;;;24.79;25.85
42511;BME280;28141;51.120;17.114;2023-01-27T17:43:54;102268.52;;;24.79;26.09
42511;BME280;28141;51.120;17.114;2023-01-27T17:47:28;102273.16;;;24.71;26.05
42511;BME280;28141;51.120;17.114;2023-01-27T17:50:35;102269.55;;;24.71;26.25
42511;BME280;28141;51.120;17.114;2023-01-27T17:53:41;102275.47;;;24.68;26.22
42511;BME280;28141;51.120;17.114;2023-01-27T17:56:45;102280.16;;;24.67;26.27
42511;BME280;28141;51.120;17.114;2023-01-27T17:59:57;102286.37;;;24.69;26.18
42511;BME280;28141;51.120;17.114;2023-01-27T18:03:12;102288.91;;;24.64;26.22
42511;BME280;28141;51.120;17.114;2023-01-27T18:06:41;102287.18;;;24.63;26.32
42511;BME280;28141;51.120;17.114;2023-01-27T18:09:50;102287.41;;;24.68;26.28
42511;BME280;28141;51.120;17.114;2023-01-27T18:12:55;102282.50;;;24.64;26.13
42511;BME280;28141;51.120;17.114;2023-01-27T18:19:21;102283.09;;;24.59;26.32
42511;BME280;28141;51.120;17.114;2023-01-27T18:22:55;102297.81;;;24.60;26.45
42511;BME280;28141;51.120;17.114;2023-01-27T18:29:21;102287.58;;;24.60;26.66
42511;BME280;28141;51.120;17.114;2023-01-27T18:32:34;102288.63;;;24.59;26.44
42511;BME280;28141;51.120;17.114;2023-01-27T18:35:40;102295.70;;;24.62;26.56
42511;BME280;28141;51.120;17.114;2023-01-27T18:42:27;102298.98;;;24.44;26.63
42511;BME280;28141;51.120;17.114;2023-01-27T18:45:31;102305.41;;;24.51;26.87
42511;BME280;28141;51.120;17.114;2023-01-27T18:48:34;102300.34;;;24.55;26.44
42511;BME280;28141;51.120;17.114;2023-01-27T18:51:38;102304.60;;;24.57;26.65
42511;BME280;28141;51.120;17.114;2023-01-27T18:54:41;102303.30;;;24.53;26.72
42511;BME280;28141;51.120;17.114;2023-01-27T18:57:46;102299.48;;;24.54;26.83
42511;BME280;28141;51.120;17.114;2023-01-27T19:01:20;102301.16;;;24.55;26.73
42511;BME280;28141;51.120;17.114;2023-01-27T19:04:26;102290.95;;;24.56;26.70
42511;BME280;28141;51.120;17.114;2023-01-27T19:07:29;102296.05;;;24.52;26.75
42511;BME280;28141;51.120;17.114;2023-01-27T19:10:35;102289.25;;;24.55;26.88
42511;BME280;28141;51.120;17.114;2023-01-27T19:13:39;102292.66;;;24.57;27.08
42511;BME280;28141;51.120;17.114;2023-01-27T19:16:43;102307.57;;;24.56;26.51
42511;BME280;28141;51.120;17.114;2023-01-27T19:19:46;102316.11;;;24.54;27.21
42511;BME280;28141;51.120;17.114;2023-01-27T19:22:51;102310.34;;;24.56;26.63
42511;BME280;28141;51.120;17.114;2023-01-27T19:26:21;102306.08;;;24.53;26.80
42511;BME280;28141;51.120;17.114;2023-01-27T19:29:25;102322.03;;;24.51;27.21
42511;BME280;28141;51.120;17.114;2023-01-27T19:32:28;102310.13;;;24.57;26.59
42511;BME280;28141;51.120;17.114;2023-01-27T19:35:32;102317.40;;;24.58;26.70
42511;BME280;28141;51.120;17.114;2023-01-27T19:38:35;102317.16;;;24.53;26.79
42511;BME280;28141;51.120;17.114;2023-01-27T19:41:40;102322.70;;;24.53;26.56
42511;BME280;28141;51.120;17.114;2023-01-27T19:44:43;102328.43;;;24.52;26.60
42511;BME280;28141;51.120;17.114;2023-01-27T19:47:48;102327.19;;;24.54;26.51
42511;BME280;28141;51.120;17.114;2023-01-27T19:51:17;102331.44;;;24.57;26.87
42511;BME280;28141;51.120;17.114;2023-01-27T19:54:21;102329.53;;;24.57;26.55
42511;BME280;28141;51.120;17.114;2023-01-27T19:57:26;102332.73;;;24.54;26.75
42511;BME280;28141;51.120;17.114;2023-01-27T20:00:35;102337.41;;;24.54;26.92
42511;BME280;28141;51.120;17.114;2023-01-27T20:03:39;102329.34;;;24.59;26.78